Time;durP1;ratioP1;P1;durP2;ratioP2;P2;SDS_P1;SDS_P2;PMS_P1;PMS_P2;Temp;Humidity;BMP_temperature;BMP_pressure;BME280_temperature;BME280_humidity;BME280_pressure;Samples;Min_cycle;Max_cycle;Signal;HPM_P1;HPM_P2
2021/05/26 00:01:59;;;;;;;2.95;1.75;;;;;;;6.62;82.24;100127.44;4807505;29;20047;-62
2021/05/26 00:04:28;;;;;;;4.20;2.00;;;;;;;6.50;82.12;100122.09;4836566;29;20057;-61
2021/05/26 00:07:03;;;;;;;4.35;1.70;;;;;;;6.57;82.21;100118.91;4878829;29;20049;-62
2021/05/26 00:09:33;;;;;;;3.90;1.80;;;;;;;6.56;82.26;100121.41;4864776;29;20065;-61
2021/05/26 00:12:03;;;;;;;4.68;1.90;;;;;;;6.33;82.10;100118.34;4864031;29;20081;-62
2021/05/26 00:14:32;;;;;;;2.97;1.90;;;;;;;6.20;82.18;100123.94;4878622;29;20053;-62
2021/05/26 00:17:04;;;;;;;3.10;1.73;;;;;;;6.22;82.66;100126.50;4864285;29;20053;-62
2021/05/26 00:19:34;;;;;;;5.38;1.90;;;;;;;6.29;82.61;100126.69;4864222;29;20072;-62
2021/05/26 00:22:03;;;;;;;4.72;1.73;;;;;;;6.46;82.37;100115.25;4864040;29;20061;-62
2021/05/26 00:24:39;;;;;;;5.80;2.13;;;;;;;6.41;82.98;100121.91;4864113;29;20053;-61
2021/05/26 00:27:14;;;;;;;3.10;1.83;;;;;;;6.47;83.11;100111.91;4864147;29;20053;-62
2021/05/26 00:29:47;;;;;;;3.75;2.00;;;;;;;6.43;82.91;100115.19;4864356;29;20061;-61
2021/05/26 00:32:16;;;;;;;5.22;2.28;;;;;;;6.56;83.43;100114.66;4862781;29;20061;-62
2021/05/26 00:34:48;;;;;;;6.25;2.28;;;;;;;6.73;83.06;100115.88;4863853;29;20050;-62
2021/05/26 00:37:20;;;;;;;5.03;2.80;;;;;;;6.61;83.38;100120.69;4864008;29;20109;-61
2021/05/26 00:39:53;;;;;;;6.25;2.05;;;;;;;6.56;82.94;100122.25;4863912;29;20057;-61
2021/05/26 00:42:26;;;;;;;5.68;2.28;;;;;;;6.45;83.07;100118.63;4863870;29;20065;-61
2021/05/26 00:44:55;;;;;;;4.95;2.30;;;;;;;6.48;83.34;100125.44;4878084;29;20514;-61
2021/05/26 00:47:35;;;;;;;8.27;2.88;;;;;;;6.35;83.07;100121.78;4863750;29;20057;-62
2021/05/26 00:50:05;;;;;;;4.80;2.20;;;;;;;6.27;83.31;100118.19;4863488;29;20046;-61
2021/05/26 00:52:38;;;;;;;4.57;2.30;;;;;;;6.30;83.51;100117.41;4864011;29;20061;-62
2021/05/26 00:55:14;;;;;;;5.20;2.25;;;;;;;6.30;83.44;100128.41;4863334;29;20062;-61
2021/05/26 00:57:48;;;;;;;4.63;2.30;;;;;;;6.18;82.66;100133.19;4863600;29;20066;-61
2021/05/26 01:00:26;;;;;;;4.35;1.95;;;;;;;6.12;83.35;100127.97;4863612;29;20057;-61
2021/05/26 01:03:08;;;;;;;5.00;2.20;;;;;;;6.20;83.30;100126.47;4863951;29;20054;-61
2021/05/26 01:05:43;;;;;;;4.82;2.20;;;;;;;6.14;83.22;100118.75;4863295;29;20504;-61
2021/05/26 01:08:16;;;;;;;5.13;2.50;;;;;;;6.04;83.08;100119.34;4863553;29;20555;-62
2021/05/26 01:10:50;;;;;;;6.30;2.22;;;;;;;6.05;83.29;100115.97;4863408;29;20088;-62
2021/05/26 01:13:28;;;;;;;3.75;2.13;;;;;;;6.05;83.79;100110.91;4863138;29;20057;-62
2021/05/26 01:19:05;;;;;;;4.03;1.88;;;;;;;5.74;83.31;100119.38;4264805;29;20124;-62
2021/05/26 01:21:36;;;;;;;5.70;2.13;;;;;;;5.78;83.48;100110.22;4844772;29;20118;-61
2021/05/26 01:24:08;;;;;;;4.78;2.90;;;;;;;5.84;83.56;100112.88;4844541;29;20042;-62
2021/05/26 01:26:41;;;;;;;10.93;5.53;;;;;;;5.88;83.87;100105.44;4828182;29;20061;-62
2021/05/26 01:29:14;;;;;;;8.52;5.72;;;;;;;5.87;83.62;100093.59;4844438;29;20056;-61
2021/05/26 01:31:47;;;;;;;8.20;4.85;;;;;;;6.09;83.97;100102.56;4844736;29;20054;-62
2021/05/26 01:34:16;;;;;;;5.38;2.80;;;;;;;6.03;83.70;100093.13;4844428;29;20122;-61
2021/05/26 01:36:50;;;;;;;6.10;2.42;;;;;;;6.01;83.56;100099.00;4844470;29;20065;-62
2021/05/26 01:39:21;;;;;;;4.00;2.10;;;;;;;6.04;83.84;100099.06;4844264;29;20053;-61
2021/05/26 01:41:56;;;;;;;5.00;2.72;;;;;;;6.15;83.32;100100.16;4844621;29;20062;-62
2021/05/26 01:44:26;;;;;;;5.53;2.22;;;;;;;6.18;83.40;100092.66;4844067;29;20068;-62
2021/05/26 01:47:12;;;;;;;4.10;2.15;;;;;;;6.12;83.19;100097.56;4843409;29;20081;-62
2021/05/26 01:49:41;;;;;;;5.03;2.72;;;;;;;5.99;82.78;100095.56;4844015;29;20060;-62
2021/05/26 01:52:14;;;;;;;5.63;1.95;;;;;;;5.99;83.23;100096.44;4844056;29;20046;-62
2021/05/26 01:54:43;;;;;;;4.82;1.95;;;;;;;5.88;83.09;100085.16;4844179;29;20489;-62
2021/05/26 01:57:13;;;;;;;4.20;2.00;;;;;;;5.81;82.61;100092.53;4844284;29;20073;-61
2021/05/26 01:59:46;;;;;;;5.35;2.17;;;;;;;5.81;83.01;100095.06;4842905;29;20042;-61
2021/05/26 02:02:23;;;;;;;4.80;2.15;;;;;;;5.70;83.08;100102.41;4827839;29;20065;-62
2021/05/26 02:04:53;;;;;;;3.75;2.10;;;;;;;5.61;82.57;100101.31;4843877;29;20042;-62
2021/05/26 02:07:27;;;;;;;6.32;2.10;;;;;;;5.57;83.06;100114.69;4827783;29;20058;-62
2021/05/26 02:10:03;;;;;;;4.75;1.80;;;;;;;5.42;82.79;100115.19;4843533;29;20050;-61
2021/05/26 02:12:36;;;;;;;3.63;2.00;;;;;;;5.24;82.68;100113.00;4836702;29;20121;-62
2021/05/26 02:15:10;;;;;;;3.58;1.80;;;;;;;5.06;82.30;100117.53;4843777;29;20089;-61
2021/05/26 02:17:41;;;;;;;6.13;2.20;;;;;;;4.98;83.09;100116.50;4843183;29;20089;-62
2021/05/26 02:20:14;;;;;;;4.63;2.47;;;;;;;4.96;83.16;100127.38;4843720;29;20058;-61
2021/05/26 02:22:43;;;;;;;5.88;2.90;;;;;;;4.95;83.32;100123.97;4827450;29;20054;-62
2021/05/26 02:25:14;;;;;;;11.77;5.72;;;;;;;4.88;83.38;100127.16;4843556;29;20404;-61
2021/05/26 02:27:44;;;;;;;18.25;11.60;;;;;;;4.81;83.19;100127.78;4827456;29;20046;-62
2021/05/26 02:30:24;;;;;;;22.67;13.48;;;;;;;4.76;83.09;100134.38;4843804;29;20578;-62
2021/05/26 02:32:53;;;;;;;24.88;16.23;;;;;;;4.75;83.64;100130.16;4843598;29;20085;-61
2021/05/26 02:35:22;;;;;;;;;;;;;;;4.84;84.03;100127.88;4842547;29;20213;-62
2021/05/26 02:37:51;;;;;;;26.75;15.00;;;;;;;4.84;83.55;100125.34;4843541;29;19947;-62
2021/05/26 02:40:24;;;;;;;15.93;10.07;;;;;;;4.81;83.84;100130.31;4827068;29;20054;-62
2021/05/26 02:42:58;;;;;;;17.73;10.48;;;;;;;4.86;84.11;100131.31;4842944;29;20045;-62
2021/05/26 02:45:28;;;;;;;14.73;8.13;;;;;;;4.93;84.04;100138.25;4843559;29;20054;-62
2021/05/26 02:48:02;;;;;;;8.75;5.07;;;;;;;4.91;83.73;100144.94;4826982;29;20140;-61
2021/05/26 02:50:33;;;;;;;8.13;4.88;;;;;;;4.83;84.13;100146.38;4826787;29;20064;-61
2021/05/26 02:53:02;;;;;;;;;;;;;;;4.92;84.49;100156.75;4843708;29;20098;-61
2021/05/26 02:55:35;;;;;;;10.10;3.87;;;;;;;5.16;84.26;100162.53;4842959;29;20260;-60
2021/05/26 02:58:33;;;;;;;7.53;2.88;;;;;;;4.93;83.63;100155.09;4823243;29;20047;-61
2021/05/26 03:01:21;;;;;;;6.43;2.53;;;;;;;4.96;83.85;100158.59;4822979;29;20061;-61
2021/05/26 03:04:13;;;;;;;4.53;2.17;;;;;;;4.86;83.49;100151.53;4836430;29;20058;-61
2021/05/26 03:06:47;;;;;;;5.40;2.40;;;;;;;4.76;83.84;100152.06;4843297;29;20465;-61
2021/05/26 03:09:19;;;;;;;5.47;2.70;;;;;;;4.66;83.92;100153.47;4842745;29;20480;-61
2021/05/26 03:11:54;;;;;;;3.63;1.90;;;;;;;4.70;83.51;100165.38;4843025;29;20088;-61
2021/05/26 03:14:34;;;;;;;3.83;2.00;;;;;;;4.77;84.04;100166.44;4842596;29;20057;-61
2021/05/26 03:17:09;;;;;;;4.70;2.20;;;;;;;4.79;84.32;100167.34;4842399;29;20083;-62
2021/05/26 03:19:42;;;;;;;3.58;2.05;;;;;;;4.82;83.79;100164.91;4842497;29;20061;-61
2021/05/26 03:22:22;;;;;;;3.60;2.05;;;;;;;4.97;84.00;100165.34;4842909;29;20058;-61
2021/05/26 03:25:15;;;;;;;3.88;2.03;;;;;;;5.03;84.32;100160.47;4842743;29;20061;-61
2021/05/26 03:27:51;;;;;;;6.80;2.55;;;;;;;5.29;84.24;100164.59;4842567;29;20054;-61
2021/05/26 03:30:23;;;;;;;5.63;2.20;;;;;;;5.42;84.22;100166.63;4842575;29;20099;-61
2021/05/26 03:32:53;;;;;;;4.63;1.90;;;;;;;5.38;84.04;100163.97;4842681;29;20083;-62
2021/05/26 03:35:26;;;;;;;4.95;1.88;;;;;;;5.33;83.97;100165.53;4843344;29;20107;-61
2021/05/26 03:37:56;;;;;;;4.40;1.92;;;;;;;5.33;83.85;100161.31;4826444;29;20057;-62
2021/05/26 03:40:31;;;;;;;4.70;2.10;;;;;;;5.35;83.37;100162.22;4842788;29;20056;-61
2021/05/26 03:43:05;;;;;;;6.35;2.72;;;;;;;5.40;83.95;100167.41;4826370;29;20054;-61
2021/05/26 03:45:42;;;;;;;5.13;2.40;;;;;;;5.44;83.66;100159.09;4842949;29;20541;-61
2021/05/26 03:48:16;;;;;;;5.53;2.63;;;;;;;5.63;83.76;100175.63;4842577;29;20531;-61
2021/05/26 03:50:49;;;;;;;7.43;3.50;;;;;;;5.72;83.65;100168.28;4842733;29;20058;-61
2021/05/26 03:53:22;;;;;;;6.35;3.70;;;;;;;5.88;83.94;100160.28;4826748;29;20054;-61
2021/05/26 03:55:56;;;;;;;8.70;4.20;;;;;;;5.99;83.74;100153.84;4842433;29;20054;-61
2021/05/26 03:58:37;;;;;;;12.63;5.07;;;;;;;6.05;83.46;100148.91;4842404;29;20092;-61
2021/05/26 04:01:25;;;;;;;14.80;5.43;;;;;;;6.19;83.35;100149.25;4826154;29;20454;-61
2021/05/26 04:03:57;;;;;;;9.20;4.22;;;;;;;6.34;83.35;100155.53;4826356;29;20411;-61
2021/05/26 04:06:34;;;;;;;7.88;3.53;;;;;;;6.49;83.22;100155.03;4843147;29;20145;-61
2021/05/26 04:09:04;;;;;;;5.40;2.80;;;;;;;6.58;83.18;100145.97;4845556;29;20531;-62
2021/05/26 04:11:43;;;;;;;6.78;2.85;;;;;;;6.83;83.23;100146.50;4845966;29;20077;-61
2021/05/26 04:14:30;;;;;;;6.00;2.72;;;;;;;7.00;82.59;100135.91;4846152;29;20069;-61
2021/05/26 04:17:26;;;;;;;6.00;3.00;;;;;;;7.22;82.51;100152.41;4830699;29;20061;-62
2021/05/26 04:20:22;;;;;;;5.28;2.42;;;;;;;7.41;82.21;100154.50;4833533;29;20630;-61
2021/05/26 04:22:53;;;;;;;6.82;3.22;;;;;;;7.56;81.53;100148.84;4845695;29;20061;-62
2021/05/26 04:25:26;;;;;;;4.30;2.58;;;;;;;7.59;81.32;100159.06;4845680;29;20573;-61
2021/05/26 04:27:56;;;;;;;4.22;1.98;;;;;;;7.70;81.48;100158.41;4845696;29;20515;-61
2021/05/26 04:30:30;;;;;;;5.40;2.42;;;;;;;7.88;81.44;100160.44;4845570;29;20080;-62
2021/05/26 04:32:59;;;;;;;5.18;2.30;;;;;;;8.06;80.98;100156.53;4845632;29;20060;-61
2021/05/26 04:35:28;;;;;;;7.18;2.55;;;;;;;8.39;80.88;100163.91;4845376;29;20061;-62
2021/05/26 04:37:57;;;;;;;3.80;2.23;;;;;;;8.47;80.14;100141.13;4845468;29;20079;-62
2021/05/26 04:40:29;;;;;;;4.40;2.33;;;;;;;8.61;80.03;100150.63;4845631;29;20046;-62
2021/05/26 04:43:00;;;;;;;4.28;2.30;;;;;;;8.78;80.09;100143.28;4845193;29;20400;-62
2021/05/26 04:45:30;;;;;;;4.85;2.38;;;;;;;8.83;78.88;100126.34;4845244;29;20057;-62
2021/05/26 04:48:00;;;;;;;6.03;2.53;;;;;;;9.12;79.25;100137.78;4845327;29;20484;-62
2021/05/26 04:50:32;;;;;;;4.38;2.25;;;;;;;9.35;78.54;100138.06;4844980;29;20493;-61
2021/05/26 04:53:01;;;;;;;4.38;1.90;;;;;;;9.50;77.70;100133.13;4845452;29;20046;-62
2021/05/26 04:55:33;;;;;;;5.97;2.33;;;;;;;9.63;77.42;100145.16;4821301;29;20061;-62
2021/05/26 04:58:04;;;;;;;4.85;1.77;;;;;;;9.75;76.88;100139.31;4845168;29;20425;-62
2021/05/26 05:00:37;;;;;;;3.17;1.80;;;;;;;9.92;76.21;100137.78;4845066;29;20082;-62
2021/05/26 05:03:08;;;;;;;3.40;1.88;;;;;;;10.00;75.83;100142.13;4844828;29;20114;-62
2021/05/26 05:05:38;;;;;;;5.25;2.55;;;;;;;10.17;75.64;100146.56;4845007;29;20054;-62
2021/05/26 05:08:09;;;;;;;5.30;2.28;;;;;;;10.35;74.92;100133.91;4844931;29;20049;-62
2021/05/26 05:10:44;;;;;;;5.25;1.88;;;;;;;10.57;74.19;100146.84;4844912;29;20497;-62
2021/05/26 05:13:13;;;;;;;4.57;2.30;;;;;;;10.78;74.40;100141.88;4845442;29;20127;-62
2021/05/26 05:15:46;;;;;;;;;;;;;;;10.89;73.60;100149.63;4828693;29;20054;-62
2021/05/26 05:18:15;;;;;;;5.55;2.20;;;;;;;10.99;73.85;100140.31;4843807;29;19930;-61
2021/05/26 05:20:44;;;;;;;6.60;2.00;;;;;;;11.17;72.96;100138.69;4844937;29;20061;-62
2021/05/26 05:23:19;;;;;;;5.07;1.92;;;;;;;11.32;72.21;100130.22;4844527;29;20042;-62
2021/05/26 05:25:48;;;;;;;5.32;2.20;;;;;;;11.42;71.58;100121.75;4844715;29;20062;-62
2021/05/26 05:28:17;;;;;;;4.47;2.00;;;;;;;11.33;71.00;100131.91;4844335;29;20358;-62
2021/05/26 05:30:48;;;;;;;5.65;2.13;;;;;;;11.23;71.07;100141.25;4844113;29;20049;-61
2021/05/26 05:33:20;;;;;;;3.20;1.90;;;;;;;11.41;71.14;100130.25;4844330;29;20058;-61
2021/05/26 05:35:54;;;;;;;4.28;2.22;;;;;;;11.63;70.55;100114.13;4844558;29;20431;-62
2021/05/26 05:38:24;;;;;;;3.30;1.83;;;;;;;11.77;70.42;100122.69;4844413;29;20090;-62
2021/05/26 05:40:53;;;;;;;4.65;1.90;;;;;;;11.79;69.96;100118.44;4844577;29;20154;-62
2021/05/26 05:43:25;;;;;;;4.78;2.00;;;;;;;11.85;69.75;100123.53;4844216;29;20058;-63
2021/05/26 05:46:00;;;;;;;4.93;2.20;;;;;;;12.05;69.51;100121.84;4844597;29;20066;-62
2021/05/26 05:48:32;;;;;;;4.03;1.90;;;;;;;12.12;69.03;100132.09;4844851;29;20429;-62
2021/05/26 05:51:01;;;;;;;5.63;2.20;;;;;;;12.21;69.01;100121.88;4843859;29;20413;-63
2021/05/26 05:53:33;;;;;;;5.70;2.15;;;;;;;12.18;68.69;100119.31;4843719;29;20412;-62
2021/05/26 05:56:05;;;;;;;4.13;1.88;;;;;;;12.14;68.86;100115.88;4844062;29;20445;-62
2021/05/26 05:58:37;;;;;;;4.55;1.90;;;;;;;12.24;68.54;100119.31;4837046;29;20065;-62
2021/05/26 06:01:07;;;;;;;4.15;2.30;;;;;;;12.25;68.69;100126.13;4843973;29;20062;-61
2021/05/26 06:03:38;;;;;;;;;;;;;;;12.44;68.68;100122.69;4843678;29;20136;-61
2021/05/26 06:08:51;;;;;;;6.40;2.13;;;;;;;12.69;67.90;100121.81;4769582;30;20089;-62
2021/05/26 06:11:23;;;;;;;5.72;2.20;;;;;;;12.74;67.69;100122.66;4787284;30;20419;-62
2021/05/26 06:13:52;;;;;;;5.35;1.73;;;;;;;12.77;67.57;100109.81;4787201;30;20047;-61
2021/05/26 06:16:25;;;;;;;2.97;1.60;;;;;;;12.83;67.76;100120.06;4787440;30;20058;-61
2021/05/26 06:18:54;;;;;;;5.00;2.03;;;;;;;12.92;67.54;100120.03;4787007;30;20076;-62
2021/05/26 06:21:27;;;;;;;3.78;1.98;;;;;;;12.89;67.25;100120.03;4787348;30;20070;-62
2021/05/26 06:24:00;;;;;;;5.72;2.35;;;;;;;13.12;67.68;100127.69;4787380;30;20051;-62
2021/05/26 06:26:36;;;;;;;5.85;2.20;;;;;;;13.36;67.32;100128.41;4786933;30;20055;-61
2021/05/26 06:29:06;;;;;;;6.63;1.90;;;;;;;13.38;66.63;100130.97;4787116;30;20078;-61
2021/05/26 06:31:38;;;;;;;5.00;1.98;;;;;;;13.46;66.63;100123.25;4786380;30;20159;-61
2021/05/26 06:34:07;;;;;;;5.68;1.90;;;;;;;13.69;65.83;100116.28;4822660;29;20501;-62
2021/05/26 06:36:42;;;;;;;5.53;1.87;;;;;;;13.90;64.70;100118.69;4842960;29;20400;-62
2021/05/26 06:39:12;;;;;;;5.55;2.13;;;;;;;14.02;64.36;100113.47;4843346;29;20058;-62
2021/05/26 06:41:44;;;;;;;5.57;1.80;;;;;;;14.05;64.08;100110.88;4843148;29;20065;-61
2021/05/26 06:44:13;;;;;;;3.88;2.00;;;;;;;14.12;63.25;100107.41;4843043;29;20530;-62
2021/05/26 06:46:44;;;;;;;7.23;1.73;;;;;;;14.20;62.08;100113.34;4842754;29;20125;-62
2021/05/26 06:49:16;;;;;;;3.47;1.70;;;;;;;14.27;61.73;100097.00;4843511;29;20417;-62
2021/05/26 06:51:48;;;;;;;3.58;1.50;;;;;;;14.46;61.78;100108.84;4843040;29;20045;-62
2021/05/26 06:54:17;;;;;;;5.43;1.80;;;;;;;14.70;61.78;100113.75;4843173;29;20061;-62
2021/05/26 06:56:46;;;;;;;4.70;1.80;;;;;;;14.82;60.83;100111.91;4842841;29;20585;-62
2021/05/26 06:59:18;;;;;;;3.70;1.53;;;;;;;14.96;61.13;100107.44;4843070;29;20364;-62
2021/05/26 07:01:51;;;;;;;4.63;1.90;;;;;;;15.17;60.37;100099.47;4842835;29;20420;-62
2021/05/26 07:04:24;;;;;;;4.35;1.90;;;;;;;15.31;59.99;100101.00;4843051;29;20064;-62
2021/05/26 07:06:55;;;;;;;5.30;1.98;;;;;;;15.36;59.62;100106.06;4843032;29;20058;-62
2021/05/26 07:09:25;;;;;;;5.03;1.85;;;;;;;15.59;59.95;100098.09;4842776;29;20085;-62
2021/05/26 07:11:54;;;;;;;3.67;1.50;;;;;;;15.69;59.22;100095.34;4842954;29;20404;-62
2021/05/26 07:14:32;;;;;;;2.92;1.45;;;;;;;15.87;58.54;100097.66;4842679;29;20077;-62
2021/05/26 07:17:03;;;;;;;5.00;1.60;;;;;;;16.04;57.92;100100.81;4842863;29;20046;-62
2021/05/26 07:19:32;;;;;;;5.25;1.60;;;;;;;15.95;57.81;100100.09;4842760;29;20086;-62
2021/05/26 07:22:01;;;;;;;3.70;1.58;;;;;;;15.41;57.52;100094.00;4842845;29;20050;-62
2021/05/26 07:24:30;;;;;;;4.35;1.83;;;;;;;15.42;58.65;100093.16;4842860;29;20073;-62
2021/05/26 07:27:07;;;;;;;3.65;1.40;;;;;;;15.73;59.24;100091.88;4842661;29;20060;-62
2021/05/26 07:29:36;;;;;;;6.65;1.60;;;;;;;16.09;58.94;100093.00;4842649;29;20121;-62
2021/05/26 07:32:09;;;;;;;4.07;1.67;;;;;;;16.28;58.93;100098.69;4843020;29;20114;-61
2021/05/26 07:34:38;;;;;;;3.08;1.50;;;;;;;16.50;58.08;100089.72;4842362;29;20385;-62
2021/05/26 07:37:07;;;;;;;5.20;2.10;;;;;;;16.71;57.46;100097.94;4843312;29;20102;-62
2021/05/26 07:39:36;;;;;;;6.18;1.92;;;;;;;16.98;57.25;100085.38;4837615;29;20073;-63
2021/05/26 07:42:07;;;;;;;6.47;1.50;;;;;;;16.91;55.38;100084.66;4841483;29;20092;-62
2021/05/26 07:44:36;;;;;;;3.88;1.58;;;;;;;16.70;55.06;100085.06;4839361;29;20050;-63
2021/05/26 07:47:05;;;;;;;4.13;1.40;;;;;;;16.85;55.22;100078.75;4840799;29;20057;-62
2021/05/26 07:49:38;;;;;;;3.27;1.30;;;;;;;16.92;54.57;100086.34;4842599;29;20514;-61
2021/05/26 07:52:12;;;;;;;5.28;1.42;;;;;;;17.02;55.08;100090.44;4843442;29;20096;-62
2021/05/26 07:54:42;;;;;;;3.72;1.50;;;;;;;17.18;55.18;100086.66;4842872;29;20050;-63
2021/05/26 07:57:11;;;;;;;2.53;1.40;;;;;;;17.17;54.26;100081.53;4841922;29;20049;-62
2021/05/26 07:59:39;;;;;;;3.42;1.40;;;;;;;16.88;52.25;100071.81;4842022;29;20038;-64
2021/05/26 08:02:08;;;;;;;2.87;1.20;;;;;;;16.95;52.87;100070.81;4845437;29;20068;-62
2021/05/26 08:04:38;;;;;;;4.00;1.30;;;;;;;16.96;53.33;100077.69;4840780;29;20090;-63
2021/05/26 08:07:08;;;;;;;3.17;1.17;;;;;;;16.98;53.50;100075.94;4846017;29;20133;-62
2021/05/26 08:09:38;;;;;;;4.07;1.20;;;;;;;17.06;53.64;100063.69;4843400;29;20093;-62
2021/05/26 08:12:09;;;;;;;3.25;1.33;;;;;;;17.30;53.22;100068.34;4841240;29;20050;-63
2021/05/26 08:14:37;;;;;;;3.65;1.38;;;;;;;17.42;53.15;100067.22;4841638;29;20077;-63
2021/05/26 08:17:07;;;;;;;3.13;1.30;;;;;;;17.40;53.13;100069.84;4832935;29;20057;-64
2021/05/26 08:19:35;;;;;;;3.80;1.60;;;;;;;17.43;54.13;100071.50;4842552;29;20792;-62
2021/05/26 08:22:05;;;;;;;2.67;1.40;;;;;;;17.51;53.96;100071.34;4831594;29;21429;-62
2021/05/26 08:24:34;;;;;;;3.03;1.38;;;;;;;17.52;53.42;100068.75;4837894;29;20049;-63
2021/05/26 08:27:06;;;;;;;2.58;1.20;;;;;;;17.39;52.74;100062.16;4842244;29;20067;-62
2021/05/26 08:29:39;;;;;;;3.13;1.30;;;;;;;17.72;53.29;100050.22;4845632;29;20057;-62
2021/05/26 08:32:08;;;;;;;6.63;1.48;;;;;;;17.79;52.30;100052.63;4845351;29;20442;-63
2021/05/26 08:34:37;;;;;;;2.45;1.02;;;;;;;17.87;50.81;100049.88;4845421;29;20049;-62
2021/05/26 08:37:10;;;;;;;3.97;1.08;;;;;;;17.64;50.23;100057.28;4845502;29;20056;-62
2021/05/26 08:39:43;;;;;;;3.35;1.10;;;;;;;17.92;51.24;100053.19;4845168;29;20412;-63
2021/05/26 08:42:11;;;;;;;3.38;1.15;;;;;;;18.25;52.15;100047.16;4845366;29;20493;-62
2021/05/26 08:44:44;;;;;;;4.28;1.52;;;;;;;18.47;51.70;100043.16;4845369;29;20053;-62
2021/05/26 08:47:17;;;;;;;2.35;1.02;;;;;;;18.65;51.79;100040.06;4845149;29;20054;-63
2021/05/26 08:49:49;;;;;;;3.35;1.20;;;;;;;18.74;51.41;100039.78;4845451;29;20188;-63
2021/05/26 08:52:22;;;;;;;3.70;1.25;;;;;;;18.82;51.13;100038.72;4845117;29;20471;-62
2021/05/26 08:54:51;;;;;;;7.57;1.30;;;;;;;18.71;50.77;100032.13;4844164;29;20130;-63
2021/05/26 08:57:23;;;;;;;3.40;1.50;;;;;;;18.47;50.87;100043.16;4845056;29;20453;-62
2021/05/26 08:59:56;;;;;;;2.67;1.25;;;;;;;18.40;50.12;100036.44;4844894;29;20457;-63
2021/05/26 09:02:28;;;;;;;5.60;1.10;;;;;;;18.61;50.26;100035.88;4844928;29;20501;-62
2021/05/26 09:05:00;;;;;;;4.05;1.30;;;;;;;18.59;49.64;100031.63;4845015;29;20066;-63
2021/05/26 09:07:33;;;;;;;3.15;1.08;;;;;;;18.80;50.43;100019.81;4844851;29;20054;-63
2021/05/26 09:10:07;;;;;;;3.33;1.20;;;;;;;18.65;49.67;100026.28;4844726;29;20398;-63
2021/05/26 09:12:41;;;;;;;1.88;1.00;;;;;;;18.64;49.21;100029.78;4844881;29;20137;-62
2021/05/26 09:15:15;;;;;;;3.92;1.20;;;;;;;18.93;48.87;100023.75;4844893;29;20120;-63
2021/05/26 09:17:46;;;;;;;2.03;1.20;;;;;;;19.09;48.70;100027.59;4844387;29;20061;-63
2021/05/26 09:20:23;;;;;;;3.13;1.20;;;;;;;18.89;47.42;100020.41;4845114;29;20396;-62
2021/05/26 09:23:12;;;;;;;5.90;1.40;;;;;;;19.05;47.70;100020.81;4845008;29;20053;-62
2021/05/26 09:25:52;;;;;;;3.83;1.40;;;;;;;19.27;47.36;100021.84;4844730;29;20054;-62
2021/05/26 09:28:24;;;;;;;2.78;1.00;;;;;;;19.54;47.98;100008.09;4844647;29;20060;-63
2021/05/26 09:30:56;;;;;;;3.90;1.23;;;;;;;19.66;47.61;100010.28;4844330;29;20076;-63
2021/05/26 09:33:36;;;;;;;2.78;1.10;;;;;;;19.62;47.60;100013.88;4844427;29;20065;-63
2021/05/26 09:36:29;;;;;;;2.38;1.02;;;;;;;19.66;46.86;100023.22;4844548;29;20485;-63
2021/05/26 09:39:05;;;;;;;3.20;1.13;;;;;;;19.64;45.49;100011.22;4844370;29;20054;-64
2021/05/26 09:41:36;;;;;;;3.55;1.15;;;;;;;19.73;45.25;100004.00;4839589;29;20038;-64
2021/05/26 09:44:09;;;;;;;5.30;1.15;;;;;;;19.64;45.93;99970.63;4843501;29;20442;-63
2021/05/26 09:46:39;;;;;;;2.97;1.10;;;;;;;19.85;46.04;99995.81;4843157;29;20077;-62
2021/05/26 09:49:15;;;;;;;1.90;1.08;;;;;;;19.74;45.70;100005.72;4843594;29;20054;-63
2021/05/26 09:51:46;;;;;;;3.10;1.33;;;;;;;19.49;46.09;99991.84;4841670;29;20057;-65
2021/05/26 09:54:22;;;;;;;2.72;1.00;;;;;;;19.47;44.78;99993.63;4828320;29;20069;-63
2021/05/26 09:56:53;;;;;;;3.92;1.48;;;;;;;19.46;45.75;99981.56;4840976;29;20045;-63
2021/05/26 09:59:23;;;;;;;2.53;1.00;;;;;;;19.65;45.48;99987.84;4836124;29;20473;-63
2021/05/26 10:01:54;;;;;;;;;;;;;;;19.76;45.81;99985.78;4841196;29;20068;-63
2021/05/26 10:04:24;;;;;;;4.20;1.20;;;;;;;19.92;45.96;99980.91;4828368;29;20031;-62
2021/05/26 10:07:06;;;;;;;1.77;0.90;;;;;;;19.99;44.31;99983.25;4839765;29;20110;-63
2021/05/26 10:09:43;;;;;;;4.18;1.20;;;;;;;19.71;43.21;99982.50;4821079;29;20513;-62
2021/05/26 10:12:18;;;;;;;2.00;1.10;;;;;;;19.45;43.77;99985.06;4837861;29;20402;-63
2021/05/26 10:14:47;;;;;;;;;;;;;;;19.32;43.60;99975.97;4842694;29;20065;-63
2021/05/26 10:17:20;;;;;;;1.50;0.82;;;;;;;19.20;43.82;99969.44;4843300;29;19928;-62
2021/05/26 10:19:50;;;;;;;2.88;1.13;;;;;;;19.27;44.57;99965.75;4835865;29;20065;-62
2021/05/26 10:22:21;;;;;;;1.75;0.82;;;;;;;19.36;43.70;99964.66;4825153;29;20054;-63
2021/05/26 10:24:51;;;;;;;2.78;0.90;;;;;;;19.35;43.14;99957.75;4840360;29;20058;-67
2021/05/26 10:27:34;;;;;;;1.92;0.90;;;;;;;19.59;44.26;99954.41;4840642;29;20058;-62
2021/05/26 10:30:07;;;;;;;2.97;1.23;;;;;;;19.84;44.78;99957.03;4843302;29;20050;-62
2021/05/26 10:32:58;;;;;;;1.75;0.95;;;;;;;19.98;44.67;99955.66;4839813;29;20061;-63
2021/05/26 10:35:28;;;;;;;2.70;1.05;;;;;;;20.08;44.19;99949.22;4830347;29;20077;-60
2021/05/26 10:38:02;;;;;;;3.42;1.00;;;;;;;20.08;43.19;99944.97;4820965;29;20081;-63
2021/05/26 10:40:38;;;;;;;2.47;0.90;;;;;;;20.35;42.96;99956.97;4842053;29;20053;-66
2021/05/26 10:43:29;;;;;;;3.28;1.10;;;;;;;20.28;41.92;99951.16;4830223;29;20158;-63
2021/05/26 10:46:00;;;;;;;2.88;1.10;;;;;;;20.08;42.27;99932.00;4839357;29;20602;-63
2021/05/26 10:49:01;;;;;;;2.22;0.88;;;;;;;20.14;42.95;99934.38;4839993;29;20057;-63
2021/05/26 10:51:51;;;;;;;2.92;0.90;;;;;;;20.16;42.49;99924.78;4828907;29;20049;-67
2021/05/26 10:54:41;;;;;;;3.45;0.93;;;;;;;20.37;42.59;99929.25;4836705;29;20064;-63
2021/05/26 10:57:11;;;;;;;3.28;0.98;;;;;;;20.43;41.96;99919.50;4839551;29;20066;-63
2021/05/26 10:59:40;;;;;;;2.80;0.85;;;;;;;20.45;41.60;99919.44;4841082;29;20046;-63
2021/05/26 11:02:10;;;;;;;1.75;1.08;;;;;;;20.82;42.44;99914.56;4842762;29;20057;-63
2021/05/26 11:04:39;;;;;;;3.08;1.25;;;;;;;20.68;42.61;99909.88;4839741;29;20509;-63
2021/05/26 11:07:20;;;;;;;3.15;1.00;;;;;;;20.39;41.67;99904.09;4842629;29;20103;-63
2021/05/26 11:09:57;;;;;;;2.92;1.10;;;;;;;20.45;42.59;99904.72;4841901;29;20056;-64
2021/05/26 11:12:50;;;;;;;2.25;0.90;;;;;;;20.57;41.80;99898.22;4834735;29;20070;-62
2021/05/26 11:15:40;;;;;;;1.67;0.90;;;;;;;20.42;41.93;99896.22;4832661;29;20038;-62
2021/05/26 11:18:09;;;;;;;;;;;;;;;20.53;41.91;99886.28;4842682;29;20114;-63
2021/05/26 11:20:38;;;;;;;2.08;1.00;;;;;;;20.57;40.92;99885.25;4840791;29;19938;-63
2021/05/26 11:23:13;;;;;;;1.60;0.80;;;;;;;20.49;39.65;99874.34;4842576;29;20429;-63
2021/05/26 11:25:49;;;;;;;3.28;0.85;;;;;;;20.54;40.35;99869.78;4839942;29;20122;-62
2021/05/26 11:28:31;;;;;;;1.48;0.80;;;;;;;20.53;41.01;99870.72;4836095;29;20397;-63
2021/05/26 11:31:01;;;;;;;2.47;1.00;;;;;;;20.57;41.32;99865.34;4835780;29;20064;-64
2021/05/26 11:33:30;;;;;;;2.83;0.98;;;;;;;20.62;41.74;99862.56;4841877;29;20054;-63
2021/05/26 11:36:02;;;;;;;1.88;1.00;;;;;;;20.75;42.54;99862.94;4836885;29;20058;-63
2021/05/26 11:38:33;;;;;;;1.70;0.98;;;;;;;20.91;42.11;99851.91;4844575;29;20576;-62
2021/05/26 11:41:16;;;;;;;3.03;0.93;;;;;;;21.04;41.76;99855.69;4840173;29;20400;-62
2021/05/26 11:43:46;;;;;;;1.98;0.90;;;;;;;21.05;41.37;99854.81;4842887;29;20058;-62
2021/05/26 11:46:15;;;;;;;2.67;1.10;;;;;;;21.07;40.77;99846.97;4841789;29;20046;-62
2021/05/26 11:48:46;;;;;;;2.30;1.10;;;;;;;21.08;41.33;99848.66;4840235;29;20042;-63
2021/05/26 11:51:24;;;;;;;3.30;0.93;;;;;;;21.17;41.93;99837.91;4839261;29;20053;-62
2021/05/26 11:53:57;;;;;;;1.05;0.90;;;;;;;21.12;42.29;99835.50;4837957;29;20053;-62
2021/05/26 11:56:26;;;;;;;2.33;0.90;;;;;;;21.02;42.47;99841.94;4838134;29;20041;-62
2021/05/26 11:58:56;;;;;;;1.90;0.93;;;;;;;20.81;41.25;99835.00;4841108;29;20045;-63
2021/05/26 12:01:30;;;;;;;2.60;1.00;;;;;;;20.75;41.83;99832.66;4834821;29;20730;-62
2021/05/26 12:04:01;;;;;;;2.08;1.00;;;;;;;20.86;41.52;99833.06;4824094;29;20058;-62
2021/05/26 12:06:34;;;;;;;2.17;1.10;;;;;;;20.91;41.57;99836.34;4833343;29;20054;-62